sensor_id;sensor_type;location;lat;lon;timestamp;pressure;altitude;pressure_sealevel;temperature;humidity
32642;BME280;19323;56.072;9.698;2023-03-22T00:01:46;99753.53;;;25.90;40.63
32642;BME280;19323;56.072;9.698;2023-03-22T00:04:11;99738.28;;;25.91;40.80
32642;BME280;19323;56.072;9.698;2023-03-22T00:06:36;99740.97;;;25.91;40.70
32642;BME280;19323;56.072;9.698;2023-03-22T00:09:01;99739.28;;;25.90;40.48
32642;BME280;19323;56.072;9.698;2023-03-22T00:11:26;99745.69;;;25.89;40.60
32642;BME280;19323;56.072;9.698;2023-03-22T00:13:51;99739.28;;;25.90;40.46
32642;BME280;19323;56.072;9.698;2023-03-22T00:16:17;99730.59;;;25.88;40.54
32642;BME280;19323;56.072;9.698;2023-03-22T00:18:43;99723.19;;;25.90;40.50
32642;BME280;19323;56.072;9.698;2023-03-22T00:21:12;99718.84;;;25.89;40.73
32642;BME280;19323;56.072;9.698;2023-03-22T00:23:38;99699.22;;;25.88;40.65
32642;BME280;19323;56.072;9.698;2023-03-22T00:26:03;99706.28;;;25.89;40.32
32642;BME280;19323;56.072;9.698;2023-03-22T00:28:28;99699.22;;;25.88;40.38
32642;BME280;19323;56.072;9.698;2023-03-22T00:30:54;99704.59;;;25.88;40.41
32642;BME280;19323;56.072;9.698;2023-03-22T00:33:19;99706.28;;;25.89;40.61
32642;BME280;19323;56.072;9.698;2023-03-22T00:35:51;99694.50;;;25.90;40.69
32642;BME280;19323;56.072;9.698;2023-03-22T00:38:17;99685.44;;;25.92;40.33
32642;BME280;19323;56.072;9.698;2023-03-22T00:40:42;99681.72;;;25.93;40.51
32642;BME280;19323;56.072;9.698;2023-03-22T00:43:07;99685.44;;;25.92;40.37
32642;BME280;19323;56.072;9.698;2023-03-22T00:45:33;99690.81;;;25.92;40.60
32642;BME280;19323;56.072;9.698;2023-03-22T00:48:01;99683.59;;;25.92;40.64
32642;BME280;19323;56.072;9.698;2023-03-22T00:50:26;99679.88;;;25.93;40.22
32642;BME280;19323;56.072;9.698;2023-03-22T00:52:51;99676.56;;;25.91;40.23
32642;BME280;19323;56.072;9.698;2023-03-22T00:55:16;99672.22;;;25.90;40.41
32642;BME280;19323;56.072;9.698;2023-03-22T00:57:41;99673.25;;;25.89;40.50
32642;BME280;19323;56.072;9.698;2023-03-22T01:00:07;99670.56;;;25.89;40.41
32642;BME280;19323;56.072;9.698;2023-03-22T01:02:37;99660.66;;;25.89;40.36
32642;BME280;19323;56.072;9.698;2023-03-22T01:05:02;99664.16;;;25.90;40.29
32642;BME280;19323;56.072;9.698;2023-03-22T01:07:28;99665.84;;;25.91;40.27
32642;BME280;19323;56.072;9.698;2023-03-22T01:09:54;99665.84;;;25.91;40.24
32642;BME280;19323;56.072;9.698;2023-03-22T01:12:19;99665.84;;;25.91;40.31
32642;BME280;19323;56.072;9.698;2023-03-22T01:14:44;99662.31;;;25.90;40.46
32642;BME280;19323;56.072;9.698;2023-03-22T01:17:10;99665.84;;;25.91;40.40
32642;BME280;19323;56.072;9.698;2023-03-22T01:19:35;99664.81;;;25.92;40.22
32642;BME280;19323;56.072;9.698;2023-03-22T01:22:01;99663.16;;;25.91;40.29
32642;BME280;19323;56.072;9.698;2023-03-22T01:24:27;99655.13;;;25.91;40.39
32642;BME280;19323;56.072;9.698;2023-03-22T01:26:52;99648.91;;;25.90;40.03
32642;BME280;19323;56.072;9.698;2023-03-22T01:29:17;99645.38;;;25.90;40.38
32642;BME280;19323;56.072;9.698;2023-03-22T01:31:42;99646.22;;;25.90;40.14
32642;BME280;19323;56.072;9.698;2023-03-22T01:34:08;99639.19;;;25.89;40.46
32642;BME280;19323;56.072;9.698;2023-03-22T01:36:33;99631.16;;;25.89;40.22
32642;BME280;19323;56.072;9.698;2023-03-22T01:38:58;99638.38;;;25.89;40.31
32642;BME280;19323;56.072;9.698;2023-03-22T01:41:23;99629.47;;;25.88;40.33
32642;BME280;19323;56.072;9.698;2023-03-22T01:46:50;99636.69;;;25.88;40.11
32642;BME280;19323;56.072;9.698;2023-03-22T01:49:16;99630.31;;;25.89;40.36
32642;BME280;19323;56.072;9.698;2023-03-22T01:51:44;99628.47;;;25.89;40.07
32642;BME280;19323;56.072;9.698;2023-03-22T01:54:11;99630.31;;;25.89;39.97
32642;BME280;19323;56.072;9.698;2023-03-22T01:56:39;99630.31;;;25.89;40.24
32642;BME280;19323;56.072;9.698;2023-03-22T01:59:05;99629.47;;;25.88;40.29
32642;BME280;19323;56.072;9.698;2023-03-22T02:01:31;99626.78;;;25.88;40.28
32642;BME280;19323;56.072;9.698;2023-03-22T02:06:28;99608.88;;;25.89;40.22
32642;BME280;19323;56.072;9.698;2023-03-22T02:08:56;99600.81;;;25.89;40.04
32642;BME280;19323;56.072;9.698;2023-03-22T02:17:10;99594.78;;;25.87;40.14
32642;BME280;19323;56.072;9.698;2023-03-22T02:25:18;99594.97;;;25.85;39.94
32642;BME280;19323;56.072;9.698;2023-03-22T02:41:12;99577.41;;;25.83;39.94
32642;BME280;19323;56.072;9.698;2023-03-22T02:44:03;99576.56;;;25.82;39.86
32642;BME280;19323;56.072;9.698;2023-03-22T02:46:34;99569.34;;;25.83;39.87
32642;BME280;19323;56.072;9.698;2023-03-22T02:49:10;99568.31;;;25.84;40.16
32642;BME280;19323;56.072;9.698;2023-03-22T02:54:17;99570.16;;;25.83;39.80
32642;BME280;19323;56.072;9.698;2023-03-22T02:56:50;99567.31;;;25.85;39.74
32642;BME280;19323;56.072;9.698;2023-03-22T02:59:17;99567.31;;;25.85;40.09
32642;BME280;19323;56.072;9.698;2023-03-22T03:01:45;99555.94;;;25.83;39.97
32642;BME280;19323;56.072;9.698;2023-03-22T03:04:14;99552.22;;;25.84;40.15
32642;BME280;19323;56.072;9.698;2023-03-22T03:06:41;99550.34;;;25.84;39.84
32642;BME280;19323;56.072;9.698;2023-03-22T03:09:10;99553.25;;;25.83;39.63
32642;BME280;19323;56.072;9.698;2023-03-22T03:11:37;99547.88;;;25.83;39.70
32642;BME280;19323;56.072;9.698;2023-03-22T03:14:02;99546.84;;;25.84;39.75
32642;BME280;19323;56.072;9.698;2023-03-22T03:16:28;99540.47;;;25.85;39.74
32642;BME280;19323;56.072;9.698;2023-03-22T03:18:58;99541.50;;;25.84;39.92
32642;BME280;19323;56.072;9.698;2023-03-22T03:24:39;99536.94;;;25.84;39.63
32642;BME280;19323;56.072;9.698;2023-03-22T03:26:53;99543.81;;;25.87;39.67
32642;BME280;19323;56.072;9.698;2023-03-22T03:29:26;99534.91;;;25.86;39.78
32642;BME280;19323;56.072;9.698;2023-03-22T03:32:02;99530.59;;;25.85;39.75
32642;BME280;19323;56.072;9.698;2023-03-22T03:37:02;99530.59;;;25.85;39.70
32642;BME280;19323;56.072;9.698;2023-03-22T03:39:30;99529.94;;;25.83;39.68
32642;BME280;19323;56.072;9.698;2023-03-22T03:41:57;99527.25;;;25.83;39.70
32642;BME280;19323;56.072;9.698;2023-03-22T03:44:23;99521.88;;;25.83;39.93
32642;BME280;19323;56.072;9.698;2023-03-22T03:46:49;99525.41;;;25.84;39.80
32642;BME280;19323;56.072;9.698;2023-03-22T03:49:15;99525.41;;;25.84;39.78
32642;BME280;19323;56.072;9.698;2023-03-22T03:51:48;99513.03;;;25.83;39.65
32642;BME280;19323;56.072;9.698;2023-03-22T03:54:14;99520.03;;;25.84;39.84
32642;BME280;19323;56.072;9.698;2023-03-22T03:56:39;99520.84;;;25.84;39.62
32642;BME280;19323;56.072;9.698;2023-03-22T03:59:04;99524.56;;;25.83;40.00
32642;BME280;19323;56.072;9.698;2023-03-22T04:01:29;99513.66;;;25.85;39.59
32642;BME280;19323;56.072;9.698;2023-03-22T04:03:55;99515.31;;;25.86;39.79
32642;BME280;19323;56.072;9.698;2023-03-22T04:06:20;99510.97;;;25.85;39.72
32642;BME280;19323;56.072;9.698;2023-03-22T04:08:45;99507.66;;;25.83;39.60
32642;BME280;19323;56.072;9.698;2023-03-22T04:11:10;99504.16;;;25.82;39.69
32642;BME280;19323;56.072;9.698;2023-03-22T04:13:35;99509.69;;;25.81;39.86
32642;BME280;19323;56.072;9.698;2023-03-22T04:16:01;99504.16;;;25.82;39.75
32642;BME280;19323;56.072;9.698;2023-03-22T04:18:26;99507.66;;;25.83;39.69
32642;BME280;19323;56.072;9.698;2023-03-22T04:20:53;99504.97;;;25.83;39.94
32642;BME280;19323;56.072;9.698;2023-03-22T04:23:21;99500.44;;;25.83;39.89
32642;BME280;19323;56.072;9.698;2023-03-22T04:25:46;99496.09;;;25.82;39.75
32642;BME280;19323;56.072;9.698;2023-03-22T04:28:14;99499.59;;;25.83;39.77
32642;BME280;19323;56.072;9.698;2023-03-22T04:30:39;99488.25;;;25.81;39.83
32642;BME280;19323;56.072;9.698;2023-03-22T04:33:04;99492.78;;;25.80;40.04
32642;BME280;19323;56.072;9.698;2023-03-22T04:35:33;99509.88;;;25.79;40.18
32642;BME280;19323;56.072;9.698;2023-03-22T04:37:58;99490.47;;;25.77;40.20
32642;BME280;19323;56.072;9.698;2023-03-22T04:40:25;99495.19;;;25.75;40.23
32642;BME280;19323;56.072;9.698;2023-03-22T04:42:52;99478.25;;;25.75;40.01
32642;BME280;19323;56.072;9.698;2023-03-22T04:45:21;99474.75;;;25.74;40.40
32642;BME280;19323;56.072;9.698;2023-03-22T04:47:46;99476.41;;;25.75;40.33
32642;BME280;19323;56.072;9.698;2023-03-22T04:50:11;99471.03;;;25.75;40.23
32642;BME280;19323;56.072;9.698;2023-03-22T04:52:36;99475.41;;;25.76;40.33
32642;BME280;19323;56.072;9.698;2023-03-22T04:55:02;99476.22;;;25.77;40.33
32642;BME280;19323;56.072;9.698;2023-03-22T04:57:27;99476.03;;;25.78;40.68
32642;BME280;19323;56.072;9.698;2023-03-22T04:59:52;99469.66;;;25.79;40.62
32642;BME280;19323;56.072;9.698;2023-03-22T05:02:17;99461.41;;;25.81;40.59
32642;BME280;19323;56.072;9.698;2023-03-22T05:04:42;99461.22;;;25.82;40.70
32642;BME280;19323;56.072;9.698;2023-03-22T05:07:08;99453.19;;;25.82;40.83
32642;BME280;19323;56.072;9.698;2023-03-22T05:09:33;99460.19;;;25.83;40.79
32642;BME280;19323;56.072;9.698;2023-03-22T05:11:58;99451.31;;;25.83;40.89
32642;BME280;19323;56.072;9.698;2023-03-22T05:14:23;99448.66;;;25.83;40.86
32642;BME280;19323;56.072;9.698;2023-03-22T05:16:48;99442.47;;;25.82;40.90
32642;BME280;19323;56.072;9.698;2023-03-22T05:19:13;99446.16;;;25.81;40.99
32642;BME280;19323;56.072;9.698;2023-03-22T05:21:39;99440.97;;;25.80;41.31
32642;BME280;19323;56.072;9.698;2023-03-22T05:24:05;99442.81;;;25.79;41.16
32642;BME280;19323;56.072;9.698;2023-03-22T05:26:30;99451.06;;;25.78;41.28
32642;BME280;19323;56.072;9.698;2023-03-22T05:28:56;99444.03;;;25.77;41.23
32642;BME280;19323;56.072;9.698;2023-03-22T05:31:21;99427.13;;;25.76;41.28
32642;BME280;19323;56.072;9.698;2023-03-22T05:33:47;99423.81;;;25.74;41.78
32642;BME280;19323;56.072;9.698;2023-03-22T05:36:14;99422.13;;;25.73;41.31
32642;BME280;19323;56.072;9.698;2023-03-22T05:38:39;99424.00;;;25.73;41.39
32642;BME280;19323;56.072;9.698;2023-03-22T05:41:05;99432.22;;;25.71;41.57
32642;BME280;19323;56.072;9.698;2023-03-22T05:43:30;99418.81;;;25.71;41.55
32642;BME280;19323;56.072;9.698;2023-03-22T05:45:56;99413.44;;;25.71;41.40
32642;BME280;19323;56.072;9.698;2023-03-22T05:48:21;99411.63;;;25.72;41.21
32642;BME280;19323;56.072;9.698;2023-03-22T05:50:47;99419.03;;;25.69;41.23
32642;BME280;19323;56.072;9.698;2023-03-22T05:53:12;99422.34;;;25.72;41.34
32642;BME280;19323;56.072;9.698;2023-03-22T05:55:37;99429.53;;;25.71;41.21
32642;BME280;19323;56.072;9.698;2023-03-22T05:58:02;99426.84;;;25.71;41.35
32642;BME280;19323;56.072;9.698;2023-03-22T06:00:28;99429.53;;;25.71;41.49
32642;BME280;19323;56.072;9.698;2023-03-22T06:02:55;99425.84;;;25.72;41.30
32642;BME280;19323;56.072;9.698;2023-03-22T06:05:21;99421.50;;;25.71;41.27
32642;BME280;19323;56.072;9.698;2023-03-22T06:07:46;99418.00;;;25.70;41.26
32642;BME280;19323;56.072;9.698;2023-03-22T06:10:12;99405.63;;;25.69;41.32
32642;BME280;19323;56.072;9.698;2023-03-22T06:12:37;99409.31;;;25.68;41.38
32642;BME280;19323;56.072;9.698;2023-03-22T06:15:03;99411.97;;;25.68;41.72
32642;BME280;19323;56.072;9.698;2023-03-22T06:17:28;99413.84;;;25.68;41.64
32642;BME280;19323;56.072;9.698;2023-03-22T06:19:53;99407.66;;;25.67;41.44
32642;BME280;19323;56.072;9.698;2023-03-22T06:22:19;99408.66;;;25.66;41.45
32642;BME280;19323;56.072;9.698;2023-03-22T06:24:44;99405.97;;;25.66;41.30
32642;BME280;19323;56.072;9.698;2023-03-22T06:27:10;99410.34;;;25.67;41.71
32642;BME280;19323;56.072;9.698;2023-03-22T06:29:35;99411.34;;;25.66;41.38
32642;BME280;19323;56.072;9.698;2023-03-22T06:32:00;99398.97;;;25.65;41.55
32642;BME280;19323;56.072;9.698;2023-03-22T06:34:25;99397.94;;;25.66;41.79
32642;BME280;19323;56.072;9.698;2023-03-22T06:36:51;99395.47;;;25.65;41.74
32642;BME280;19323;56.072;9.698;2023-03-22T06:39:17;99391.75;;;25.66;41.66
32642;BME280;19323;56.072;9.698;2023-03-22T06:41:42;99399.78;;;25.66;41.69
32642;BME280;19323;56.072;9.698;2023-03-22T06:44:07;99393.59;;;25.65;41.62
32642;BME280;19323;56.072;9.698;2023-03-22T06:46:33;99385.56;;;25.65;41.44
32642;BME280;19323;56.072;9.698;2023-03-22T06:48:58;99380.84;;;25.67;41.40
32642;BME280;19323;56.072;9.698;2023-03-22T06:51:23;99383.53;;;25.67;41.50
32642;BME280;19323;56.072;9.698;2023-03-22T06:53:48;99391.75;;;25.66;41.36
32642;BME280;19323;56.072;9.698;2023-03-22T06:56:13;99382.66;;;25.67;41.22
32642;BME280;19323;56.072;9.698;2023-03-22T06:58:39;99376.47;;;25.66;41.55
32642;BME280;19323;56.072;9.698;2023-03-22T07:01:04;99380.19;;;25.65;41.65
32642;BME280;19323;56.072;9.698;2023-03-22T07:03:30;99378.34;;;25.66;41.78
32642;BME280;19323;56.072;9.698;2023-03-22T07:06:02;99383.72;;;25.66;41.49
32642;BME280;19323;56.072;9.698;2023-03-22T07:08:27;99380.19;;;25.65;41.65
32642;BME280;19323;56.072;9.698;2023-03-22T07:10:52;99366.78;;;25.65;41.46
32642;BME280;19323;56.072;9.698;2023-03-22T07:13:18;99364.25;;;25.57;41.75
32642;BME280;19323;56.072;9.698;2023-03-22T07:15:43;99374.63;;;25.67;41.37
32642;BME280;19323;56.072;9.698;2023-03-22T07:18:08;99371.94;;;25.67;41.45
32642;BME280;19323;56.072;9.698;2023-03-22T07:20:33;99367.22;;;25.69;41.38
32642;BME280;19323;56.072;9.698;2023-03-22T07:23:02;99360.03;;;25.69;41.52
32642;BME280;19323;56.072;9.698;2023-03-22T07:25:27;99362.72;;;25.69;41.66
32642;BME280;19323;56.072;9.698;2023-03-22T07:27:52;99376.13;;;25.69;41.65
32642;BME280;19323;56.072;9.698;2023-03-22T07:30:17;99375.25;;;25.69;41.25
32642;BME280;19323;56.072;9.698;2023-03-22T07:32:42;99382.31;;;25.70;41.43
32642;BME280;19323;56.072;9.698;2023-03-22T07:35:08;99370.75;;;25.69;41.58
32642;BME280;19323;56.072;9.698;2023-03-22T07:37:33;99362.72;;;25.69;41.36
32642;BME280;19323;56.072;9.698;2023-03-22T07:39:58;99368.06;;;25.69;41.50
32642;BME280;19323;56.072;9.698;2023-03-22T07:42:23;99362.72;;;25.69;41.11
32642;BME280;19323;56.072;9.698;2023-03-22T07:44:48;99361.66;;;25.70;41.25
32642;BME280;19323;56.072;9.698;2023-03-22T07:47:14;99355.47;;;25.70;41.31
32642;BME280;19323;56.072;9.698;2023-03-22T07:49:39;99357.97;;;25.72;41.13
32642;BME280;19323;56.072;9.698;2023-03-22T07:52:04;99354.25;;;25.73;41.37
32642;BME280;19323;56.072;9.698;2023-03-22T07:54:30;99346.22;;;25.73;41.02
32642;BME280;19323;56.072;9.698;2023-03-22T07:56:56;99344.34;;;25.73;41.13
32642;BME280;19323;56.072;9.698;2023-03-22T07:59:21;99352.41;;;25.73;40.98
32642;BME280;19323;56.072;9.698;2023-03-22T08:01:47;99350.13;;;25.70;40.54
32642;BME280;19323;56.072;9.698;2023-03-22T08:04:12;99340.41;;;25.69;40.66
32642;BME280;19323;56.072;9.698;2023-03-22T08:06:37;99335.03;;;25.69;40.69
32642;BME280;19323;56.072;9.698;2023-03-22T08:09:04;99341.25;;;25.69;40.63
32642;BME280;19323;56.072;9.698;2023-03-22T08:11:31;99343.09;;;25.69;40.91
32642;BME280;19323;56.072;9.698;2023-03-22T08:13:56;99335.88;;;25.69;40.97
32642;BME280;19323;56.072;9.698;2023-03-22T08:16:21;99326.81;;;25.70;40.78
32642;BME280;19323;56.072;9.698;2023-03-22T08:18:47;99326.81;;;25.70;40.98
32642;BME280;19323;56.072;9.698;2023-03-22T08:21:12;99325.16;;;25.69;40.71
32642;BME280;19323;56.072;9.698;2023-03-22T08:23:38;99319.81;;;25.69;40.90
32642;BME280;19323;56.072;9.698;2023-03-22T08:26:03;99322.47;;;25.69;40.74
32642;BME280;19323;56.072;9.698;2023-03-22T08:28:28;99321.44;;;25.70;40.60
32642;BME280;19323;56.072;9.698;2023-03-22T08:30:53;99310.72;;;25.70;40.66
32642;BME280;19323;56.072;9.698;2023-03-22T08:33:19;99309.06;;;25.69;40.76
32642;BME280;19323;56.072;9.698;2023-03-22T08:35:47;99306.19;;;25.71;40.73
32642;BME280;19323;56.072;9.698;2023-03-22T08:38:12;99307.22;;;25.70;40.68
32642;BME280;19323;56.072;9.698;2023-03-22T08:40:37;99308.22;;;25.69;40.79
32642;BME280;19323;56.072;9.698;2023-03-22T08:43:02;99302.88;;;25.69;40.67
32642;BME280;19323;56.072;9.698;2023-03-22T08:45:31;99303.72;;;25.69;40.51
32642;BME280;19323;56.072;9.698;2023-03-22T08:47:56;99294.00;;;25.68;40.46
32642;BME280;19323;56.072;9.698;2023-03-22T08:50:21;99302.03;;;25.68;40.77
32642;BME280;19323;56.072;9.698;2023-03-22T08:52:47;99292.34;;;25.67;40.78
32642;BME280;19323;56.072;9.698;2023-03-22T08:55:12;99286.78;;;25.69;40.79
32642;BME280;19323;56.072;9.698;2023-03-22T08:57:38;99282.25;;;25.69;40.37
32642;BME280;19323;56.072;9.698;2023-03-22T09:00:04;99286.78;;;25.69;40.47
32642;BME280;19323;56.072;9.698;2023-03-22T09:02:30;99279.75;;;25.68;40.52
32642;BME280;19323;56.072;9.698;2023-03-22T09:04:56;99277.28;;;25.66;40.40
32642;BME280;19323;56.072;9.698;2023-03-22T09:07:21;99271.09;;;25.66;40.67
32642;BME280;19323;56.072;9.698;2023-03-22T09:09:46;99278.94;;;25.67;40.59
32642;BME280;19323;56.072;9.698;2023-03-22T09:12:11;99277.28;;;25.66;40.35
32642;BME280;19323;56.072;9.698;2023-03-22T09:14:37;99272.53;;;25.68;40.45
32642;BME280;19323;56.072;9.698;2023-03-22T09:17:02;99270.03;;;25.67;40.37
32642;BME280;19323;56.072;9.698;2023-03-22T09:19:27;99264.06;;;25.65;40.69
32642;BME280;19323;56.072;9.698;2023-03-22T09:21:53;99259.72;;;25.64;40.65
32642;BME280;19323;56.072;9.698;2023-03-22T09:24:18;99253.53;;;25.63;40.86
32642;BME280;19323;56.072;9.698;2023-03-22T09:26:43;99254.53;;;25.62;40.58
32642;BME280;19323;56.072;9.698;2023-03-22T09:29:09;99251.88;;;25.62;40.83
32642;BME280;19323;56.072;9.698;2023-03-22T09:31:34;99257.03;;;25.64;40.62
32642;BME280;19323;56.072;9.698;2023-03-22T09:33:59;99253.53;;;25.63;40.86
32642;BME280;19323;56.072;9.698;2023-03-22T09:36:24;99255.41;;;25.63;41.00
32642;BME280;19323;56.072;9.698;2023-03-22T09:38:49;99251.03;;;25.62;40.83
32642;BME280;19323;56.072;9.698;2023-03-22T09:41:20;99262.81;;;25.61;40.68
32642;BME280;19323;56.072;9.698;2023-03-22T09:43:48;99261.78;;;25.62;40.95
32642;BME280;19323;56.072;9.698;2023-03-22T09:46:37;99270.63;;;25.62;40.95
32642;BME280;19323;56.072;9.698;2023-03-22T09:49:02;99260.75;;;25.63;41.00
32642;BME280;19323;56.072;9.698;2023-03-22T09:54:00;99257.03;;;25.64;40.89
32642;BME280;19323;56.072;9.698;2023-03-22T09:56:26;99259.72;;;25.64;40.92
32642;BME280;19323;56.072;9.698;2023-03-22T10:01:36;99230.22;;;25.64;41.18
32642;BME280;19323;56.072;9.698;2023-03-22T10:06:50;99230.41;;;25.62;41.03
32642;BME280;19323;56.072;9.698;2023-03-22T10:09:28;99225.91;;;25.63;41.24
32642;BME280;19323;56.072;9.698;2023-03-22T10:14:29;99225.69;;;25.64;41.34
32642;BME280;19323;56.072;9.698;2023-03-22T10:16:55;99221.19;;;25.65;40.95
32642;BME280;19323;56.072;9.698;2023-03-22T10:19:30;99219.50;;;25.64;41.01
32642;BME280;19323;56.072;9.698;2023-03-22T10:21:57;99215.38;;;25.61;41.16
32642;BME280;19323;56.072;9.698;2023-03-22T10:24:35;99206.50;;;25.61;41.28
32642;BME280;19323;56.072;9.698;2023-03-22T10:27:02;99221.75;;;25.60;41.44
32642;BME280;19323;56.072;9.698;2023-03-22T10:29:29;99223.81;;;25.58;41.54
32642;BME280;19323;56.072;9.698;2023-03-22T10:31:58;99218.44;;;25.58;41.67
32642;BME280;19323;56.072;9.698;2023-03-22T10:34:33;99214.09;;;25.57;41.69
32642;BME280;19323;56.072;9.698;2023-03-22T10:36:59;99219.47;;;25.57;41.69
32642;BME280;19323;56.072;9.698;2023-03-22T10:39:35;99214.09;;;25.57;41.73
32642;BME280;19323;56.072;9.698;2023-03-22T10:42:03;99212.47;;;25.56;42.05
32642;BME280;19323;56.072;9.698;2023-03-22T10:44:30;99205.22;;;25.57;42.04
32642;BME280;19323;56.072;9.698;2023-03-22T10:46:59;99202.94;;;25.54;42.08
32642;BME280;19323;56.072;9.698;2023-03-22T10:49:31;99192.00;;;25.55;41.82
32642;BME280;19323;56.072;9.698;2023-03-22T10:52:01;99204.19;;;25.58;41.97
32642;BME280;19323;56.072;9.698;2023-03-22T10:54:27;99199.69;;;25.58;41.98
32642;BME280;19323;56.072;9.698;2023-03-22T10:56:52;99193.91;;;25.61;41.98
32642;BME280;19323;56.072;9.698;2023-03-22T11:02:01;99199.28;;;25.61;41.85
32642;BME280;19323;56.072;9.698;2023-03-22T11:04:26;99189.38;;;25.62;41.74
32642;BME280;19323;56.072;9.698;2023-03-22T11:06:55;99188.75;;;25.60;42.30
32642;BME280;19323;56.072;9.698;2023-03-22T11:09:20;99187.09;;;25.59;42.07
32642;BME280;19323;56.072;9.698;2023-03-22T11:11:56;99189.78;;;25.59;41.97
32642;BME280;19323;56.072;9.698;2023-03-22T11:14:26;99188.09;;;25.58;42.22
32642;BME280;19323;56.072;9.698;2023-03-22T11:19:23;99177.19;;;25.59;42.00
32642;BME280;19323;56.072;9.698;2023-03-22T11:21:50;99179.88;;;25.59;42.07
32642;BME280;19323;56.072;9.698;2023-03-22T11:24:15;99179.88;;;25.59;41.74
32642;BME280;19323;56.072;9.698;2023-03-22T11:26:42;99176.16;;;25.60;41.73
32642;BME280;19323;56.072;9.698;2023-03-22T11:29:25;99177.84;;;25.61;41.66
32642;BME280;19323;56.072;9.698;2023-03-22T11:31:51;99174.34;;;25.61;41.74
32642;BME280;19323;56.072;9.698;2023-03-22T11:34:18;99179.47;;;25.62;41.86
32642;BME280;19323;56.072;9.698;2023-03-22T11:36:44;99166.28;;;25.61;41.85
32642;BME280;19323;56.072;9.698;2023-03-22T11:39:11;99158.03;;;25.62;41.81
32642;BME280;19323;56.072;9.698;2023-03-22T11:41:38;99165.06;;;25.63;41.84
32642;BME280;19323;56.072;9.698;2023-03-22T11:44:04;99162.38;;;25.63;41.83
32642;BME280;19323;56.072;9.698;2023-03-22T11:46:30;99160.69;;;25.62;41.64
32642;BME280;19323;56.072;9.698;2023-03-22T11:48:59;99156.19;;;25.63;41.62
32642;BME280;19323;56.072;9.698;2023-03-22T11:51:29;99152.66;;;25.62;41.69
32642;BME280;19323;56.072;9.698;2023-03-22T11:54:06;99146.28;;;25.63;41.72
32642;BME280;19323;56.072;9.698;2023-03-22T11:56:32;99148.97;;;25.63;41.75
32642;BME280;19323;56.072;9.698;2023-03-22T11:59:02;99148.78;;;25.65;41.68
32642;BME280;19323;56.072;9.698;2023-03-22T12:02:30;99137.19;;;25.64;41.63
32642;BME280;19323;56.072;9.698;2023-03-22T12:04:24;99134.53;;;25.64;41.78
32642;BME280;19323;56.072;9.698;2023-03-22T12:06:51;99132.69;;;25.65;41.76
32642;BME280;19323;56.072;9.698;2023-03-22T12:11:56;99122.78;;;25.65;41.71
32642;BME280;19323;56.072;9.698;2023-03-22T12:16:59;99121.75;;;25.66;41.50
32642;BME280;19323;56.072;9.698;2023-03-22T12:19:37;99105.41;;;25.55;41.81
32642;BME280;19323;56.072;9.698;2023-03-22T12:22:12;99115.38;;;25.67;41.53
32642;BME280;19323;56.072;9.698;2023-03-22T12:24:37;99119.06;;;25.66;41.86
32642;BME280;19323;56.072;9.698;2023-03-22T12:27:09;99114.75;;;25.65;41.60
32642;BME280;19323;56.072;9.698;2023-03-22T12:29:38;99114.75;;;25.65;41.73
32642;BME280;19323;56.072;9.698;2023-03-22T12:32:09;99107.53;;;25.66;41.63
32642;BME280;19323;56.072;9.698;2023-03-22T12:34:43;99115.56;;;25.66;41.73
32642;BME280;19323;56.072;9.698;2023-03-22T12:37:12;99107.53;;;25.66;41.65
32642;BME280;19323;56.072;9.698;2023-03-22T12:39:43;99100.53;;;25.65;41.80
32642;BME280;19323;56.072;9.698;2023-03-22T12:42:27;99108.56;;;25.65;41.78
32642;BME280;19323;56.072;9.698;2023-03-22T12:45:00;99104.03;;;25.65;41.65
32642;BME280;19323;56.072;9.698;2023-03-22T12:47:28;99066.78;;;25.42;41.67
32642;BME280;19323;56.072;9.698;2023-03-22T12:49:57;99104.03;;;25.65;41.75
32642;BME280;19323;56.072;9.698;2023-03-22T12:52:25;99097.84;;;25.65;41.67
32642;BME280;19323;56.072;9.698;2023-03-22T12:54:54;99102.34;;;25.64;41.94
32642;BME280;19323;56.072;9.698;2023-03-22T12:57:20;99089.16;;;25.63;41.96
32642;BME280;19323;56.072;9.698;2023-03-22T12:59:47;99100.91;;;25.62;41.95
32642;BME280;19323;56.072;9.698;2023-03-22T13:02:17;99089.97;;;25.63;42.01
32642;BME280;19323;56.072;9.698;2023-03-22T13:07:16;99084.00;;;25.61;41.86
32642;BME280;19323;56.072;9.698;2023-03-22T13:09:54;99082.94;;;25.62;41.85
32642;BME280;19323;56.072;9.698;2023-03-22T13:17:59;99081.31;;;25.61;41.81
32642;BME280;19323;56.072;9.698;2023-03-22T13:27:49;99094.09;;;25.59;41.86
32642;BME280;19323;56.072;9.698;2023-03-22T13:31:01;99097.81;;;25.58;41.95
32642;BME280;19323;56.072;9.698;2023-03-22T13:33:11;99100.69;;;25.57;41.98
32642;BME280;19323;56.072;9.698;2023-03-22T13:35:44;99109.72;;;25.56;42.14
32642;BME280;19323;56.072;9.698;2023-03-22T13:40:48;99101.91;;;25.54;42.16
32642;BME280;19323;56.072;9.698;2023-03-22T13:48:28;99105.59;;;25.53;42.09
32642;BME280;19323;56.072;9.698;2023-03-22T13:50:54;99100.41;;;25.52;42.37
32642;BME280;19323;56.072;9.698;2023-03-22T13:53:25;99084.34;;;25.52;42.09
32642;BME280;19323;56.072;9.698;2023-03-22T14:01:11;99097.75;;;25.52;42.52
32642;BME280;19323;56.072;9.698;2023-03-22T14:03:39;99097.75;;;25.52;42.50
32642;BME280;19323;56.072;9.698;2023-03-22T14:06:10;99096.94;;;25.51;42.20
32642;BME280;19323;56.072;9.698;2023-03-22T14:08:37;99102.09;;;25.53;42.36
32642;BME280;19323;56.072;9.698;2023-03-22T14:11:27;99098.59;;;25.52;42.11
32642;BME280;19323;56.072;9.698;2023-03-22T14:13:52;99086.00;;;25.53;42.27
32642;BME280;19323;56.072;9.698;2023-03-22T14:19:04;99085.81;;;25.54;42.59
32642;BME280;19323;56.072;9.698;2023-03-22T14:21:31;99075.47;;;25.51;42.52
32642;BME280;19323;56.072;9.698;2023-03-22T14:23:57;99084.34;;;25.52;42.41
32642;BME280;19323;56.072;9.698;2023-03-22T14:26:39;99084.97;;;25.54;42.19
32642;BME280;19323;56.072;9.698;2023-03-22T14:29:09;99088.50;;;25.54;42.35
32642;BME280;19323;56.072;9.698;2023-03-22T14:31:37;99090.16;;;25.55;42.48